createdAt,value
2022-11-17T00:00:06.000Z,987.2
2022-11-17T00:01:23.000Z,987.3
2022-11-17T00:02:39.000Z,987.2
2022-11-17T00:03:55.000Z,987.2
2022-11-17T00:05:11.000Z,987.1
2022-11-17T00:06:27.000Z,987.1
2022-11-17T00:07:43.000Z,987.1
2022-11-17T00:08:59.000Z,987.1
2022-11-17T00:10:15.000Z,987
2022-11-17T00:11:31.000Z,987.1
2022-11-17T00:12:47.000Z,987.1
2022-11-17T00:14:03.000Z,987
2022-11-17T00:15:20.000Z,987
2022-11-17T00:16:36.000Z,987
2022-11-17T00:17:52.000Z,987
2022-11-17T00:19:08.000Z,987
2022-11-17T00:20:24.000Z,986.9
2022-11-17T00:21:41.000Z,986.9
2022-11-17T00:22:57.000Z,986.8
2022-11-17T00:24:13.000Z,986.8
2022-11-17T00:25:28.000Z,986.8
2022-11-17T00:26:44.000Z,986.7
2022-11-17T00:28:01.000Z,986.8
2022-11-17T00:29:17.000Z,986.7
2022-11-17T00:30:33.000Z,986.7
2022-11-17T00:31:49.000Z,986.8
2022-11-17T00:33:05.000Z,986.7
2022-11-17T00:34:21.000Z,986.7
2022-11-17T00:35:38.000Z,986.6
2022-11-17T00:36:54.000Z,986.5
2022-11-17T00:38:10.000Z,986.6
2022-11-17T00:39:26.000Z,986.5
2022-11-17T00:40:42.000Z,986.6
2022-11-17T00:41:58.000Z,986.5
2022-11-17T00:43:14.000Z,986.5
2022-11-17T00:44:30.000Z,986.4
2022-11-17T00:45:46.000Z,986.4
2022-11-17T00:47:02.000Z,986.4
2022-11-17T00:48:19.000Z,986.4
2022-11-17T00:49:35.000Z,986.5
2022-11-17T00:50:51.000Z,986.4
2022-11-17T00:52:07.000Z,986.3
2022-11-17T00:53:23.000Z,986.4
2022-11-17T00:54:39.000Z,986.3
2022-11-17T00:55:56.000Z,986.3
2022-11-17T00:57:12.000Z,986.4
2022-11-17T00:58:27.000Z,986.2
2022-11-17T00:59:43.000Z,986.2
2022-11-17T01:00:59.000Z,986.2
2022-11-17T01:02:16.000Z,986.2
2022-11-17T01:03:32.000Z,986.2
2022-11-17T01:04:48.000Z,986.2
2022-11-17T01:06:04.000Z,986.1
2022-11-17T01:07:20.000Z,986.2
2022-11-17T01:08:37.000Z,986.1
2022-11-17T01:09:53.000Z,986.1
2022-11-17T01:11:09.000Z,986.1
2022-11-17T01:12:25.000Z,986.1
2022-11-17T01:13:41.000Z,986.1
2022-11-17T01:14:57.000Z,986.1
2022-11-17T01:16:13.000Z,986.1
2022-11-17T01:17:29.000Z,986
2022-11-17T01:18:45.000Z,986.1
2022-11-17T01:20:01.000Z,985.9
2022-11-17T01:21:17.000Z,985.9
2022-11-17T01:22:34.000Z,986
2022-11-17T01:23:50.000Z,985.9
2022-11-17T01:25:06.000Z,985.9
2022-11-17T01:26:22.000Z,985.8
2022-11-17T01:27:38.000Z,985.8
2022-11-17T01:28:55.000Z,985.8
2022-11-17T01:30:11.000Z,985.7
2022-11-17T01:31:26.000Z,985.5
2022-11-17T01:32:42.000Z,985.7
2022-11-17T01:33:58.000Z,985.6
2022-11-17T01:35:15.000Z,985.6
2022-11-17T01:36:31.000Z,985.7
2022-11-17T01:37:46.000Z,985.6
2022-11-17T01:39:02.000Z,985.6
2022-11-17T01:40:18.000Z,985.6
2022-11-17T01:41:34.000Z,985.6
2022-11-17T01:42:51.000Z,985.4
2022-11-17T01:44:07.000Z,985.4
2022-11-17T01:45:23.000Z,985.3
2022-11-17T01:46:39.000Z,985.4
2022-11-17T01:47:55.000Z,985.3
2022-11-17T01:49:12.000Z,985.3
2022-11-17T01:50:28.000Z,985.2
2022-11-17T01:51:44.000Z,985.2
2022-11-17T01:53:00.000Z,985.2
2022-11-17T01:54:15.000Z,985.2
2022-11-17T01:55:32.000Z,985.1
2022-11-17T01:56:48.000Z,985.1
2022-11-17T01:58:04.000Z,985.1
2022-11-17T01:59:20.000Z,985.1
2022-11-17T02:00:36.000Z,985.1
2022-11-17T02:01:53.000Z,985.2
2022-11-17T02:03:09.000Z,985.1
2022-11-17T02:04:25.000Z,985.1
2022-11-17T02:05:41.000Z,985.1
2022-11-17T02:06:57.000Z,985.1
2022-11-17T02:08:13.000Z,985.1
2022-11-17T02:09:30.000Z,985.1
2022-11-17T02:10:46.000Z,985.1
2022-11-17T02:12:01.000Z,985.2
2022-11-17T02:13:17.000Z,985
2022-11-17T02:14:33.000Z,985.1
2022-11-17T02:15:50.000Z,985.1
2022-11-17T02:17:06.000Z,985
2022-11-17T02:18:22.000Z,985
2022-11-17T02:19:38.000Z,984.9
2022-11-17T02:20:54.000Z,984.9
2022-11-17T02:22:11.000Z,985
2022-11-17T02:23:27.000Z,984.9
2022-11-17T02:24:43.000Z,984.9
2022-11-17T02:25:59.000Z,984.8
2022-11-17T02:27:15.000Z,984.7
2022-11-17T02:28:30.000Z,984.8
2022-11-17T02:29:47.000Z,984.7
2022-11-17T02:31:03.000Z,984.6
2022-11-17T02:32:19.000Z,984.6
2022-11-17T02:33:35.000Z,984.6
2022-11-17T02:34:51.000Z,984.6
2022-11-17T02:36:08.000Z,984.7
2022-11-17T02:37:24.000Z,984.6
2022-11-17T02:38:40.000Z,984.6
2022-11-17T02:39:56.000Z,984.5
2022-11-17T02:41:12.000Z,984.4
2022-11-17T02:42:29.000Z,984.4
2022-11-17T02:43:45.000Z,984.4
2022-11-17T02:45:00.000Z,984.2
2022-11-17T02:46:16.000Z,984.4
2022-11-17T02:47:32.000Z,984.3
2022-11-17T02:48:48.000Z,984.3
2022-11-17T02:50:05.000Z,984.3
2022-11-17T02:51:21.000Z,984.2
2022-11-17T02:52:37.000Z,984.2
2022-11-17T02:53:53.000Z,984.2
2022-11-17T02:55:09.000Z,984.2
2022-11-17T02:56:26.000Z,984.2
2022-11-17T02:57:42.000Z,984.2
2022-11-17T02:58:58.000Z,984.2
2022-11-17T03:00:14.000Z,984
2022-11-17T03:01:29.000Z,984.1
2022-11-17T03:02:46.000Z,984
2022-11-17T03:04:02.000Z,984
2022-11-17T03:05:18.000Z,983.9
2022-11-17T03:06:34.000Z,984
2022-11-17T03:07:50.000Z,983.9
2022-11-17T03:09:07.000Z,983.9
2022-11-17T03:10:23.000Z,983.8
2022-11-17T03:11:39.000Z,983.8
2022-11-17T03:12:55.000Z,983.9
2022-11-17T03:14:11.000Z,983.9
2022-11-17T03:15:27.000Z,983.8
2022-11-17T03:16:44.000Z,983.8
2022-11-17T03:18:00.000Z,983.8
2022-11-17T03:19:15.000Z,983.7
2022-11-17T03:20:31.000Z,983.8
2022-11-17T03:21:47.000Z,983.8
2022-11-17T03:23:04.000Z,983.8
2022-11-17T03:24:20.000Z,983.8
2022-11-17T03:25:36.000Z,983.8
2022-11-17T03:26:52.000Z,983.7
2022-11-17T03:28:08.000Z,983.8
2022-11-17T03:29:25.000Z,983.8
2022-11-17T03:30:41.000Z,983.8
2022-11-17T03:31:57.000Z,983.7
2022-11-17T03:33:13.000Z,983.7
2022-11-17T03:34:29.000Z,983.7
2022-11-17T03:35:44.000Z,983.6
2022-11-17T03:37:01.000Z,983.6
2022-11-17T03:38:17.000Z,983.7
2022-11-17T03:39:33.000Z,983.6
2022-11-17T03:40:49.000Z,983.5
2022-11-17T03:42:05.000Z,983.5
2022-11-17T03:43:22.000Z,983.5
2022-11-17T03:44:38.000Z,983.5
2022-11-17T03:45:54.000Z,983.4
2022-11-17T03:47:10.000Z,983.4
2022-11-17T03:48:26.000Z,983.5
2022-11-17T03:49:43.000Z,983.5
2022-11-17T03:50:59.000Z,983.5
2022-11-17T03:52:14.000Z,983.5
2022-11-17T03:53:30.000Z,983.4
2022-11-17T03:54:46.000Z,983.5
2022-11-17T03:56:02.000Z,983.4
2022-11-17T03:57:19.000Z,983.4
2022-11-17T03:58:35.000Z,983.3
2022-11-17T03:59:51.000Z,983.4
2022-11-17T04:01:07.000Z,983.4
2022-11-17T04:02:23.000Z,983.4
2022-11-17T04:03:40.000Z,983.3
2022-11-17T04:04:56.000Z,983.3
2022-11-17T04:06:12.000Z,983.3
2022-11-17T04:07:28.000Z,983.3
2022-11-17T04:08:43.000Z,983.3
2022-11-17T04:10:00.000Z,983.2
2022-11-17T04:11:16.000Z,983.2
2022-11-17T04:12:32.000Z,983.3
2022-11-17T04:13:48.000Z,983.2
2022-11-17T04:15:04.000Z,983.3
2022-11-17T04:16:21.000Z,983.2
2022-11-17T04:17:37.000Z,983.2
2022-11-17T04:18:53.000Z,983.1
2022-11-17T04:20:09.000Z,983.1
2022-11-17T04:21:25.000Z,983
2022-11-17T04:22:41.000Z,983
2022-11-17T04:23:58.000Z,983
2022-11-17T04:25:13.000Z,983.1
2022-11-17T04:26:29.000Z,983.1
2022-11-17T04:27:45.000Z,983
2022-11-17T04:29:01.000Z,983
2022-11-17T04:30:18.000Z,982.9
2022-11-17T04:31:34.000Z,982.9
2022-11-17T04:32:50.000Z,982.9
2022-11-17T04:34:06.000Z,982.9
2022-11-17T04:35:22.000Z,982.9
2022-11-17T04:36:39.000Z,982.8
2022-11-17T04:37:55.000Z,982.8
2022-11-17T04:39:11.000Z,982.7
2022-11-17T04:40:27.000Z,982.7
2022-11-17T04:41:42.000Z,982.7
2022-11-17T04:42:58.000Z,982.7
2022-11-17T04:44:15.000Z,982.6
2022-11-17T04:45:31.000Z,982.5
2022-11-17T04:46:47.000Z,982.6
2022-11-17T04:48:03.000Z,982.6
2022-11-17T04:49:19.000Z,982.6
2022-11-17T04:50:36.000Z,982.6
2022-11-17T04:51:52.000Z,982.5
2022-11-17T04:53:08.000Z,982.5
2022-11-17T04:54:24.000Z,982.6
2022-11-17T04:55:40.000Z,982.5
2022-11-17T04:56:57.000Z,982.5
2022-11-17T04:58:12.000Z,982.6
2022-11-17T04:59:28.000Z,982.6
2022-11-17T05:00:44.000Z,982.6
2022-11-17T05:02:00.000Z,982.6
2022-11-17T05:03:17.000Z,982.5
2022-11-17T05:04:33.000Z,982.5
2022-11-17T05:05:49.000Z,982.4
2022-11-17T05:07:05.000Z,982.5
2022-11-17T05:08:21.000Z,982.4
2022-11-17T05:09:37.000Z,982.5
2022-11-17T05:10:54.000Z,982.4
2022-11-17T05:12:10.000Z,982.5
2022-11-17T05:13:26.000Z,982.5
2022-11-17T05:14:41.000Z,982.4
2022-11-17T05:15:57.000Z,982.5
2022-11-17T05:17:14.000Z,982.5
2022-11-17T05:18:30.000Z,982.4
2022-11-17T05:19:46.000Z,982.4
2022-11-17T05:21:02.000Z,982.5
2022-11-17T05:22:18.000Z,982.5
2022-11-17T05:23:35.000Z,982.5
2022-11-17T05:24:51.000Z,982.5
2022-11-17T05:26:07.000Z,982.5
2022-11-17T05:27:23.000Z,982.5
2022-11-17T05:28:39.000Z,982.5
2022-11-17T05:29:56.000Z,982.5
2022-11-17T05:31:12.000Z,982.5
2022-11-17T05:32:28.000Z,982.4
2022-11-17T05:33:44.000Z,982.4
2022-11-17T05:35:00.000Z,982.5
2022-11-17T05:36:16.000Z,982.4
2022-11-17T05:37:33.000Z,982.5
2022-11-17T05:38:48.000Z,982.5
2022-11-17T05:40:04.000Z,982.4
2022-11-17T05:41:20.000Z,982.4
2022-11-17T05:42:36.000Z,982.3
2022-11-17T05:43:53.000Z,982.4
2022-11-17T05:45:09.000Z,982.3
2022-11-17T05:46:25.000Z,982.3
2022-11-17T05:47:41.000Z,982.3
2022-11-17T05:48:57.000Z,982.2
2022-11-17T05:50:14.000Z,982.3
2022-11-17T05:51:30.000Z,982.2
2022-11-17T05:52:45.000Z,982.1
2022-11-17T05:54:01.000Z,982.2
2022-11-17T05:55:17.000Z,982.1
2022-11-17T05:56:34.000Z,982.2
2022-11-17T05:57:50.000Z,982.2
2022-11-17T05:59:06.000Z,982.2
2022-11-17T06:00:22.000Z,982.3
2022-11-17T06:01:38.000Z,982.3
2022-11-17T06:02:54.000Z,982.3
2022-11-17T06:04:11.000Z,982.3
2022-11-17T06:05:27.000Z,982.3
2022-11-17T06:06:43.000Z,982.2
2022-11-17T06:07:59.000Z,982.2
2022-11-17T06:09:14.000Z,982.1
2022-11-17T06:10:31.000Z,982.2
2022-11-17T06:11:47.000Z,982.2
2022-11-17T06:13:03.000Z,982.2
2022-11-17T06:14:19.000Z,982.2
2022-11-17T06:15:35.000Z,982.2
2022-11-17T06:16:52.000Z,982.2
2022-11-17T06:18:08.000Z,982.2
2022-11-17T06:19:24.000Z,982.1
2022-11-17T06:20:40.000Z,982.1
2022-11-17T06:21:56.000Z,982.2
2022-11-17T06:23:12.000Z,982.1
2022-11-17T06:24:29.000Z,982.1
2022-11-17T06:25:44.000Z,982.1
2022-11-17T06:27:00.000Z,982.1
2022-11-17T06:28:16.000Z,982.1
2022-11-17T06:29:32.000Z,982.1
2022-11-17T06:30:49.000Z,982
2022-11-17T06:32:05.000Z,982
2022-11-17T06:33:21.000Z,982.1
2022-11-17T06:34:37.000Z,982.1
2022-11-17T06:35:53.000Z,982.1
2022-11-17T06:37:10.000Z,982.1
2022-11-17T06:38:26.000Z,982
2022-11-17T06:39:42.000Z,982.1
2022-11-17T06:40:58.000Z,982.1
2022-11-17T06:42:13.000Z,982
2022-11-17T06:43:30.000Z,982.1
2022-11-17T06:44:46.000Z,982.1
2022-11-17T06:46:02.000Z,982
2022-11-17T06:47:18.000Z,982
2022-11-17T06:48:34.000Z,982
2022-11-17T06:49:50.000Z,982
2022-11-17T06:51:07.000Z,982.1
2022-11-17T06:52:23.000Z,982
2022-11-17T06:53:39.000Z,982.1
2022-11-17T06:54:55.000Z,982.1
2022-11-17T06:56:11.000Z,982.2
2022-11-17T06:57:28.000Z,982
2022-11-17T06:58:43.000Z,982
2022-11-17T06:59:59.000Z,982
2022-11-17T07:01:15.000Z,982.1
2022-11-17T07:02:31.000Z,982
2022-11-17T07:03:48.000Z,982.1
2022-11-17T07:05:04.000Z,982
2022-11-17T07:06:20.000Z,982
2022-11-17T07:07:36.000Z,982
2022-11-17T07:08:52.000Z,982
2022-11-17T07:10:09.000Z,981.9
2022-11-17T07:11:25.000Z,981.9
2022-11-17T07:12:41.000Z,981.9
2022-11-17T07:13:57.000Z,982
2022-11-17T07:15:12.000Z,982
2022-11-17T07:16:28.000Z,982
2022-11-17T07:17:45.000Z,981.9
2022-11-17T07:19:01.000Z,982
2022-11-17T07:20:17.000Z,981.9
2022-11-17T07:21:33.000Z,981.9
2022-11-17T07:22:49.000Z,981.8
2022-11-17T07:24:06.121Z,981.9
2022-11-17T07:25:22.000Z,981.8
2022-11-17T07:26:38.000Z,981.9
2022-11-17T07:27:54.000Z,981.8
2022-11-17T07:29:10.000Z,981.9
2022-11-17T07:30:27.000Z,981.9
2022-11-17T07:31:42.000Z,981.8
2022-11-17T07:32:58.000Z,981.8
2022-11-17T07:34:14.000Z,981.8
2022-11-17T07:35:30.000Z,981.8
2022-11-17T07:36:47.000Z,981.9
2022-11-17T07:38:03.000Z,981.9
2022-11-17T07:39:19.000Z,981.9
2022-11-17T07:40:35.000Z,981.8
2022-11-17T07:41:51.000Z,981.9
2022-11-17T07:43:07.000Z,981.9
2022-11-17T07:44:24.000Z,981.9
2022-11-17T07:45:40.000Z,981.8
2022-11-17T07:46:56.000Z,981.9
2022-11-17T07:48:11.000Z,981.9
2022-11-17T07:49:27.000Z,981.9
2022-11-17T07:50:44.000Z,981.8
2022-11-17T07:52:00.000Z,981.9
2022-11-17T07:53:16.000Z,981.9
2022-11-17T07:54:32.000Z,981.9
2022-11-17T07:55:48.000Z,981.9
2022-11-17T07:57:05.000Z,981.9
2022-11-17T07:58:21.000Z,982
2022-11-17T07:59:37.000Z,982
2022-11-17T08:00:53.000Z,982
2022-11-17T08:02:09.000Z,981.9
2022-11-17T08:03:26.000Z,982
2022-11-17T08:04:41.000Z,982
2022-11-17T08:05:57.000Z,981.9
2022-11-17T08:07:13.000Z,982
2022-11-17T08:08:29.000Z,982
2022-11-17T08:09:45.000Z,982
2022-11-17T08:11:02.000Z,982
2022-11-17T08:12:18.000Z,982
2022-11-17T08:13:34.000Z,982.1
2022-11-17T08:14:50.000Z,982.1
2022-11-17T08:16:06.000Z,982.1
2022-11-17T08:17:23.000Z,982.1
2022-11-17T08:18:39.000Z,982.1
2022-11-17T08:19:55.000Z,982
2022-11-17T08:21:10.000Z,982
2022-11-17T08:22:26.000Z,982
2022-11-17T08:23:43.000Z,982
2022-11-17T08:24:59.000Z,982.1
2022-11-17T08:26:15.000Z,982.1
2022-11-17T08:27:31.000Z,982
2022-11-17T08:28:47.000Z,982.1
2022-11-17T08:30:04.000Z,982.1
2022-11-17T08:31:20.000Z,982.1
2022-11-17T08:32:36.000Z,982.1
2022-11-17T08:33:52.000Z,982.2
2022-11-17T08:35:08.000Z,982.2
2022-11-17T08:36:24.000Z,982.1
2022-11-17T08:37:40.000Z,982.1
2022-11-17T08:38:56.000Z,982.1
2022-11-17T08:40:12.000Z,982.2
2022-11-17T08:41:28.000Z,982.1
2022-11-17T08:42:44.000Z,982.1
2022-11-17T08:44:01.000Z,982.1
2022-11-17T08:45:17.000Z,982.2
2022-11-17T08:46:33.000Z,982.2
2022-11-17T08:47:49.000Z,982.1
2022-11-17T08:49:05.000Z,982.2
2022-11-17T08:50:22.000Z,982.2
2022-11-17T08:51:38.000Z,982.3
2022-11-17T08:52:54.000Z,982.3
2022-11-17T08:54:09.000Z,982.3
2022-11-17T08:55:25.000Z,982.2
2022-11-17T08:56:41.000Z,982.3
2022-11-17T08:57:58.000Z,982.2
2022-11-17T08:59:14.000Z,982.3
2022-11-17T09:00:30.000Z,982.3
2022-11-17T09:01:46.000Z,982.4
2022-11-17T09:03:02.000Z,982.4
2022-11-17T09:04:19.000Z,982.4
2022-11-17T09:05:35.000Z,982.3
2022-11-17T09:06:51.000Z,982.4
2022-11-17T09:08:07.000Z,982.5
2022-11-17T09:09:23.000Z,982.5
2022-11-17T09:10:39.000Z,982.5
2022-11-17T09:11:55.000Z,982.6
2022-11-17T09:13:11.000Z,982.6
2022-11-17T09:14:27.000Z,982.6
2022-11-17T09:15:43.000Z,982.6
2022-11-17T09:17:00.000Z,982.6
2022-11-17T09:18:16.000Z,982.6
2022-11-17T09:19:32.000Z,982.6
2022-11-17T09:20:48.000Z,982.5
2022-11-17T09:22:04.000Z,982.6
2022-11-17T09:23:20.000Z,982.7
2022-11-17T09:24:37.000Z,982.7
2022-11-17T09:25:53.000Z,982.7
2022-11-17T09:27:08.000Z,982.7
2022-11-17T09:28:24.000Z,982.8
2022-11-17T09:29:40.000Z,982.6
2022-11-17T09:30:57.000Z,982.7
2022-11-17T09:32:13.000Z,982.7
2022-11-17T09:33:29.000Z,982.8
2022-11-17T09:34:45.000Z,982.8
2022-11-17T09:36:01.000Z,982.8
2022-11-17T09:37:18.000Z,982.9
2022-11-17T09:38:34.000Z,982.8
2022-11-17T09:39:50.000Z,982.8
2022-11-17T09:41:06.000Z,982.9
2022-11-17T09:42:22.000Z,982.9
2022-11-17T09:43:38.000Z,983
2022-11-17T09:44:54.000Z,983
2022-11-17T09:46:10.000Z,982.9
2022-11-17T09:47:26.000Z,983
2022-11-17T09:48:42.000Z,983
2022-11-17T09:49:58.000Z,983
2022-11-17T09:51:15.000Z,983
2022-11-17T09:52:31.000Z,982.9
2022-11-17T09:53:47.000Z,983
2022-11-17T09:55:03.000Z,982.9
2022-11-17T09:56:19.000Z,983
2022-11-17T09:57:36.000Z,983
2022-11-17T09:58:52.000Z,983
2022-11-17T10:00:07.000Z,983
2022-11-17T10:01:23.000Z,983
2022-11-17T10:02:39.000Z,983
2022-11-17T10:03:56.000Z,983
2022-11-17T10:05:12.000Z,983
2022-11-17T10:06:28.000Z,983
2022-11-17T10:07:43.000Z,983
2022-11-17T10:08:59.000Z,983.1
2022-11-17T10:10:16.000Z,983.1
2022-11-17T10:11:32.000Z,983.1
2022-11-17T10:12:48.000Z,983.1
2022-11-17T10:14:04.000Z,983.1
2022-11-17T10:15:20.000Z,983.1
2022-11-17T10:16:36.000Z,983.2
2022-11-17T10:17:53.000Z,983.1
2022-11-17T10:19:09.000Z,983.2
2022-11-17T10:20:25.000Z,983.2
2022-11-17T10:21:41.000Z,983.2
2022-11-17T10:22:57.000Z,983.1
2022-11-17T10:24:13.000Z,983.1
2022-11-17T10:25:29.000Z,983.2
2022-11-17T10:26:45.000Z,983.1
2022-11-17T10:28:01.000Z,983.2
2022-11-17T10:29:17.000Z,983.1
2022-11-17T10:30:34.000Z,983.1
2022-11-17T10:31:50.000Z,983
2022-11-17T10:33:06.000Z,983
2022-11-17T10:34:22.000Z,983.1
2022-11-17T10:35:38.000Z,983.1
2022-11-17T10:36:55.000Z,983
2022-11-17T10:38:11.000Z,983.1
2022-11-17T10:39:27.000Z,983.1
2022-11-17T10:40:42.000Z,983.1
2022-11-17T10:41:58.000Z,983.1
2022-11-17T10:43:14.000Z,983.1
2022-11-17T10:44:31.000Z,983.1
2022-11-17T10:45:47.000Z,983
2022-11-17T10:47:03.000Z,983
2022-11-17T10:48:19.000Z,983
2022-11-17T10:49:35.000Z,983.1
2022-11-17T10:50:52.000Z,983
2022-11-17T10:52:08.000Z,983
2022-11-17T10:53:24.000Z,983.1
2022-11-17T10:54:40.000Z,983.1
2022-11-17T10:55:56.000Z,983
2022-11-17T10:57:13.000Z,983
2022-11-17T10:58:28.000Z,983
2022-11-17T10:59:44.000Z,983
2022-11-17T11:01:00.000Z,983
2022-11-17T11:02:16.000Z,983
2022-11-17T11:03:33.000Z,983
2022-11-17T11:04:49.000Z,983.1
2022-11-17T11:06:05.000Z,983.1
2022-11-17T11:07:21.000Z,983.1
2022-11-17T11:08:37.000Z,983.1
2022-11-17T11:09:53.000Z,983.1
2022-11-17T11:11:10.000Z,983.1
2022-11-17T11:12:26.000Z,983.1
2022-11-17T11:13:42.000Z,983.1
2022-11-17T11:14:57.000Z,983.1
2022-11-17T11:16:13.000Z,983.1
2022-11-17T11:17:30.000Z,983.1
2022-11-17T11:18:46.000Z,983.2
2022-11-17T11:20:02.000Z,983.1
2022-11-17T11:21:18.000Z,983.2
2022-11-17T11:22:34.000Z,983.2
2022-11-17T11:23:51.000Z,983.2
2022-11-17T11:25:07.000Z,983.2
2022-11-17T11:26:23.000Z,983.2
2022-11-17T11:27:39.000Z,983.2
2022-11-17T11:28:55.000Z,983.2
2022-11-17T11:30:12.000Z,983.3
2022-11-17T11:31:27.000Z,983.3
2022-11-17T11:32:43.000Z,983.3
2022-11-17T11:33:59.000Z,983.3
2022-11-17T11:35:15.000Z,983.3
2022-11-17T11:36:31.000Z,983.3
2022-11-17T11:37:48.000Z,983.2
2022-11-17T11:39:04.000Z,983.3
2022-11-17T11:40:20.000Z,983.2
2022-11-17T11:41:36.000Z,983.4
2022-11-17T11:42:52.000Z,983.4
2022-11-17T11:44:09.000Z,983.3
2022-11-17T11:45:25.000Z,983.3
2022-11-17T11:46:41.000Z,983.4
2022-11-17T11:47:56.000Z,983.3
2022-11-17T11:49:12.000Z,983.4
2022-11-17T11:50:29.000Z,983.4
2022-11-17T11:51:45.000Z,983.4
2022-11-17T11:53:01.000Z,983.3
2022-11-17T11:54:17.000Z,983.4
2022-11-17T11:55:33.000Z,983.4
2022-11-17T11:56:49.000Z,983.4
2022-11-17T11:58:06.000Z,983.3
2022-11-17T11:59:22.000Z,983.4
2022-11-17T12:00:38.000Z,983.3
2022-11-17T12:01:54.000Z,983.3
2022-11-17T12:03:10.000Z,983.4
2022-11-17T12:04:27.000Z,983.4
2022-11-17T12:05:42.000Z,983.4
2022-11-17T12:06:58.000Z,983.5
2022-11-17T12:08:14.000Z,983.5
2022-11-17T12:09:30.000Z,983.5
2022-11-17T12:10:47.000Z,983.5
2022-11-17T12:12:03.000Z,983.4
2022-11-17T12:13:19.000Z,983.6
2022-11-17T12:14:35.000Z,983.5
2022-11-17T12:15:51.000Z,983.6
2022-11-17T12:17:08.000Z,983.5
2022-11-17T12:18:24.000Z,983.6
2022-11-17T12:19:40.000Z,983.5
2022-11-17T12:20:56.000Z,983.5
2022-11-17T12:22:11.000Z,983.5
2022-11-17T12:23:27.000Z,983.6
2022-11-17T12:24:44.000Z,983.5
2022-11-17T12:26:00.000Z,983.5
2022-11-17T12:27:16.000Z,983.5
2022-11-17T12:28:32.000Z,983.5
2022-11-17T12:29:48.000Z,983.7
2022-11-17T12:31:05.000Z,983.7
2022-11-17T12:32:21.000Z,983.7
2022-11-17T12:33:37.000Z,983.7
2022-11-17T12:34:53.000Z,983.7
2022-11-17T12:36:09.000Z,983.7
2022-11-17T12:37:26.000Z,983.6
2022-11-17T12:38:42.000Z,983.6
2022-11-17T12:39:57.000Z,983.6
2022-11-17T12:41:13.000Z,983.7
2022-11-17T12:43:46.000Z,983.7
2022-11-17T12:45:02.000Z,983.7
2022-11-17T12:46:18.000Z,983.8
2022-11-17T12:47:34.000Z,983.7
2022-11-17T12:48:50.000Z,983.7
2022-11-17T12:50:06.000Z,983.7
2022-11-17T12:51:23.000Z,983.7
2022-11-17T12:52:39.000Z,983.7
2022-11-17T12:53:55.000Z,983.7
2022-11-17T12:55:11.000Z,983.7
2022-11-17T12:56:26.000Z,983.7
2022-11-17T12:57:43.000Z,983.7
2022-11-17T12:58:59.000Z,983.7
2022-11-17T13:00:15.000Z,983.8
2022-11-17T13:01:31.000Z,983.7
2022-11-17T13:02:47.000Z,983.9
2022-11-17T13:04:04.000Z,983.8
2022-11-17T13:05:20.000Z,983.9
2022-11-17T13:06:36.000Z,983.9
2022-11-17T13:07:52.000Z,983.8
2022-11-17T13:09:08.000Z,983.9
2022-11-17T13:10:25.000Z,983.9
2022-11-17T13:11:41.000Z,983.9
2022-11-17T13:12:56.000Z,983.9
2022-11-17T13:14:12.000Z,983.9
2022-11-17T13:15:28.000Z,983.9
2022-11-17T13:16:44.000Z,983.9
2022-11-17T13:18:01.000Z,984
2022-11-17T13:19:17.000Z,983.9
2022-11-17T13:20:33.000Z,984
2022-11-17T13:21:49.000Z,983.9
2022-11-17T13:23:05.000Z,983.9
2022-11-17T13:24:22.000Z,984
2022-11-17T13:25:38.000Z,984
2022-11-17T13:26:54.000Z,984
2022-11-17T13:28:10.000Z,984
2022-11-17T13:29:25.000Z,984.1
2022-11-17T13:30:42.000Z,984
2022-11-17T13:31:58.000Z,984.1
2022-11-17T13:33:14.000Z,984
2022-11-17T13:34:30.000Z,984.1
2022-11-17T13:35:46.000Z,984.1
2022-11-17T13:37:03.000Z,984.1
2022-11-17T13:38:19.000Z,984.1
2022-11-17T13:39:35.000Z,984.1
2022-11-17T13:40:51.000Z,984.1
2022-11-17T13:42:07.000Z,984.2
2022-11-17T13:43:23.000Z,984.1
2022-11-17T13:44:40.000Z,984.2
2022-11-17T13:45:55.000Z,984.2
2022-11-17T13:47:11.000Z,984.2
2022-11-17T13:48:27.000Z,984.2
2022-11-17T13:49:43.000Z,984.2
2022-11-17T13:51:00.000Z,984.2
2022-11-17T13:52:16.000Z,984.2
2022-11-17T13:53:32.000Z,984.2
2022-11-17T13:54:48.000Z,984.2
2022-11-17T13:56:04.000Z,984.3
2022-11-17T13:57:21.000Z,984.3
2022-11-17T13:58:37.000Z,984.3
2022-11-17T13:59:53.000Z,984.2
2022-11-17T14:01:09.000Z,984.3
2022-11-17T14:02:24.000Z,984.4
2022-11-17T14:03:40.000Z,984.3
2022-11-17T14:04:57.000Z,984.4
2022-11-17T14:06:13.000Z,984.4
2022-11-17T14:07:29.000Z,984.4
2022-11-17T14:08:45.000Z,984.4
2022-11-17T14:10:01.000Z,984.4
2022-11-17T14:11:18.000Z,984.4
2022-11-17T14:12:34.000Z,984.4
2022-11-17T14:13:50.000Z,984.5
2022-11-17T14:15:06.000Z,984.4
2022-11-17T14:16:22.000Z,984.4
2022-11-17T14:17:39.000Z,984.5
2022-11-17T14:18:54.000Z,984.5
2022-11-17T14:20:10.000Z,984.4
2022-11-17T14:21:26.000Z,984.4
2022-11-17T14:22:41.000Z,984.4
2022-11-17T14:23:58.000Z,984.5
2022-11-17T14:25:14.000Z,984.5
2022-11-17T14:26:30.000Z,984.5
2022-11-17T14:27:46.000Z,984.5
2022-11-17T14:29:02.000Z,984.5
2022-11-17T14:30:18.000Z,984.5
2022-11-17T14:31:35.000Z,984.5
2022-11-17T14:32:51.000Z,984.6
2022-11-17T14:34:07.000Z,984.6
2022-11-17T14:35:23.000Z,984.5
2022-11-17T14:36:39.000Z,984.6
2022-11-17T14:37:56.000Z,984.6
2022-11-17T14:39:11.000Z,984.6
2022-11-17T14:40:27.000Z,984.7
2022-11-17T14:41:43.000Z,984.7
2022-11-17T14:42:59.000Z,984.7
2022-11-17T14:44:16.000Z,984.7
2022-11-17T14:45:32.000Z,984.7
2022-11-17T14:46:48.000Z,984.7
2022-11-17T14:48:04.000Z,984.7
2022-11-17T14:49:20.000Z,984.7
2022-11-17T14:50:36.000Z,984.7
2022-11-17T14:51:53.000Z,984.7
2022-11-17T14:53:09.000Z,984.7
2022-11-17T14:54:25.000Z,984.7
2022-11-17T14:55:40.000Z,984.7
2022-11-17T14:56:56.000Z,984.8
2022-11-17T14:58:13.000Z,984.7
2022-11-17T14:59:29.000Z,984.8
2022-11-17T15:00:45.000Z,984.8
2022-11-17T15:02:01.000Z,984.7
2022-11-17T15:03:17.000Z,984.8
2022-11-17T15:04:34.000Z,984.8
2022-11-17T15:05:50.000Z,984.8
2022-11-17T15:07:06.000Z,984.8
2022-11-17T15:08:22.000Z,984.8
2022-11-17T15:09:38.000Z,984.8
2022-11-17T15:10:54.000Z,984.8
2022-11-17T15:12:10.000Z,984.8
2022-11-17T15:13:26.000Z,984.9
2022-11-17T15:14:42.000Z,984.9
2022-11-17T15:15:58.000Z,984.9
2022-11-17T15:17:14.000Z,984.9
2022-11-17T15:18:31.000Z,984.9
2022-11-17T15:19:47.000Z,984.9
2022-11-17T15:21:03.000Z,984.9
2022-11-17T15:22:19.000Z,984.9
2022-11-17T15:23:35.000Z,984.9
2022-11-17T15:24:52.000Z,984.9
2022-11-17T15:26:08.000Z,984.9
2022-11-17T15:27:24.000Z,984.9
2022-11-17T15:28:39.000Z,984.9
2022-11-17T15:29:55.000Z,985
2022-11-17T15:31:12.000Z,985
2022-11-17T15:32:28.000Z,985
2022-11-17T15:33:44.000Z,985
2022-11-17T15:35:00.000Z,985
2022-11-17T15:36:16.000Z,985
2022-11-17T15:37:32.000Z,985.1
2022-11-17T15:38:49.000Z,985
2022-11-17T15:40:05.000Z,985.1
2022-11-17T15:41:21.000Z,985.1
2022-11-17T15:42:37.000Z,985.1
2022-11-17T15:43:53.000Z,985.2
2022-11-17T15:45:09.000Z,985.1
2022-11-17T15:46:25.000Z,985.1
2022-11-17T15:47:41.000Z,985.1
2022-11-17T15:48:57.000Z,985.1
2022-11-17T15:50:13.000Z,985
2022-11-17T15:51:30.000Z,985.1
2022-11-17T15:52:46.000Z,985.2
2022-11-17T15:54:02.000Z,985.1
2022-11-17T15:55:18.000Z,985.2
2022-11-17T15:56:34.000Z,985.2
2022-11-17T15:57:50.000Z,985.2
2022-11-17T15:59:07.000Z,985.1
2022-11-17T16:00:23.000Z,985.2
2022-11-17T16:01:38.000Z,985.1
2022-11-17T16:02:54.000Z,985.2
2022-11-17T16:04:10.000Z,985.2
2022-11-17T16:05:27.000Z,985.2
2022-11-17T16:06:43.000Z,985.2
2022-11-17T16:07:59.000Z,985.3
2022-11-17T16:09:15.000Z,985.2
2022-11-17T16:10:31.000Z,985.3
2022-11-17T16:11:48.000Z,985.3
2022-11-17T16:13:04.000Z,985.3
2022-11-17T16:14:20.000Z,985.3
2022-11-17T16:15:36.000Z,985.4
2022-11-17T16:16:52.000Z,985.3
2022-11-17T16:18:08.000Z,985.3
2022-11-17T16:19:24.000Z,985.4
2022-11-17T16:20:40.000Z,985.4
2022-11-17T16:21:56.000Z,985.4
2022-11-17T16:23:12.000Z,985.4
2022-11-17T16:24:28.000Z,985.4
2022-11-17T16:25:45.000Z,985.5
2022-11-17T16:27:01.000Z,985.4
2022-11-17T16:28:17.000Z,985.4
2022-11-17T16:29:33.000Z,985.4